createdAt,value
2022-09-09T00:00:30.324Z,0.00
2022-09-09T00:01:29.880Z,0.00
2022-09-09T00:02:29.938Z,0.00
2022-09-09T00:03:29.966Z,0.00
2022-09-09T00:04:30.351Z,0.00
2022-09-09T00:05:30.594Z,0.00
2022-09-09T00:06:30.753Z,0.00
2022-09-09T00:07:29.879Z,0.00
2022-09-09T00:08:29.798Z,0.00
2022-09-09T00:09:29.823Z,0.00
2022-09-09T00:10:29.793Z,0.00
2022-09-09T00:11:31.559Z,0.00
2022-09-09T00:12:29.744Z,0.00
2022-09-09T00:13:29.803Z,0.00
2022-09-09T00:14:29.714Z,0.00
2022-09-09T00:15:29.838Z,0.00
2022-09-09T00:16:30.563Z,0.00
2022-09-09T00:17:29.754Z,0.00
2022-09-09T00:18:29.690Z,0.00
2022-09-09T00:19:29.703Z,0.00
2022-09-09T00:20:29.643Z,0.00
2022-09-09T00:21:29.665Z,0.00
2022-09-09T00:22:29.652Z,0.00
2022-09-09T00:23:29.665Z,0.00
2022-09-09T00:24:29.613Z,0.00
2022-09-09T00:25:29.626Z,0.00
2022-09-09T00:26:29.623Z,0.00
2022-09-09T00:27:30.321Z,0.00
2022-09-09T00:28:29.794Z,0.00
2022-09-09T00:29:29.604Z,0.00
2022-09-09T00:30:29.533Z,0.00
2022-09-09T00:31:29.609Z,0.00
2022-09-09T00:32:29.512Z,0.00
2022-09-09T00:33:30.249Z,0.00
2022-09-09T00:34:29.530Z,0.00
2022-09-09T00:35:29.499Z,0.00
2022-09-09T00:36:30.435Z,0.00
2022-09-09T00:37:29.875Z,0.00
2022-09-09T00:38:29.452Z,0.00
2022-09-09T00:39:29.884Z,0.00
2022-09-09T00:40:29.434Z,0.00
2022-09-09T00:41:29.426Z,0.00
2022-09-09T00:42:29.415Z,0.00
2022-09-09T00:43:29.404Z,0.00
2022-09-09T00:44:29.596Z,0.00
2022-09-09T00:45:30.124Z,0.00
2022-09-09T00:46:30.292Z,0.00
2022-09-09T00:47:29.413Z,0.00
2022-09-09T00:48:29.395Z,0.00
2022-09-09T00:49:29.441Z,0.00
2022-09-09T00:50:29.443Z,0.00
2022-09-09T00:51:29.342Z,0.00
2022-09-09T00:52:29.284Z,0.00
2022-09-09T00:53:29.302Z,0.00
2022-09-09T00:54:29.263Z,0.00
2022-09-09T00:55:30.144Z,0.00
2022-09-09T00:56:29.271Z,0.00
2022-09-09T00:57:29.296Z,0.00
2022-09-09T00:58:29.323Z,0.00
2022-09-09T00:59:29.223Z,0.00
2022-09-09T01:00:29.203Z,0.00
2022-09-09T01:01:29.317Z,0.00
2022-09-09T01:02:29.280Z,0.00
2022-09-09T01:03:29.223Z,0.00
2022-09-09T01:04:29.222Z,0.00
2022-09-09T01:05:29.164Z,0.00
2022-09-09T01:06:29.856Z,0.00
2022-09-09T01:07:30.024Z,0.00
2022-09-09T01:08:29.321Z,0.00
2022-09-09T01:09:29.122Z,0.00
2022-09-09T01:10:29.116Z,0.00
2022-09-09T01:11:29.893Z,0.00
2022-09-09T01:12:29.174Z,0.00
2022-09-09T01:13:29.083Z,0.00
2022-09-09T01:14:29.074Z,0.00
2022-09-09T01:15:29.082Z,0.00
2022-09-09T01:16:29.088Z,0.00
2022-09-09T01:17:29.074Z,0.00
2022-09-09T01:18:29.084Z,0.00
2022-09-09T01:19:29.010Z,0.00
2022-09-09T01:20:29.331Z,0.00
2022-09-09T01:21:29.023Z,0.00
2022-09-09T01:22:28.980Z,0.00
2022-09-09T01:23:28.985Z,0.00
2022-09-09T01:24:28.943Z,0.00
2022-09-09T01:25:28.952Z,0.00
2022-09-09T01:26:29.734Z,0.00
2022-09-09T01:27:29.658Z,0.00
2022-09-09T01:28:28.944Z,0.00
2022-09-09T01:29:28.911Z,0.00
2022-09-09T01:30:28.921Z,0.00
2022-09-09T01:31:28.892Z,0.00
2022-09-09T01:32:28.853Z,0.00
2022-09-09T01:33:29.312Z,0.00
2022-09-09T01:34:28.834Z,0.00
2022-09-09T01:35:28.826Z,0.00
2022-09-09T01:36:28.802Z,0.00
2022-09-09T01:37:28.812Z,0.00
2022-09-09T01:38:28.821Z,0.00
2022-09-09T01:39:29.608Z,0.00
2022-09-09T01:40:28.823Z,0.00
2022-09-09T01:41:28.763Z,0.00
2022-09-09T01:42:28.732Z,0.00
2022-09-09T01:43:28.742Z,0.00
2022-09-09T01:44:28.872Z,0.00
2022-09-09T01:45:28.724Z,0.00
2022-09-09T01:46:28.925Z,0.00
2022-09-09T01:47:29.514Z,0.00
2022-09-09T01:48:29.472Z,0.00
2022-09-09T01:49:28.682Z,0.00
2022-09-09T01:50:28.712Z,0.00
2022-09-09T01:51:28.690Z,0.00
2022-09-09T01:52:28.622Z,0.00
2022-09-09T01:53:28.633Z,0.00
2022-09-09T01:54:28.604Z,0.00
2022-09-09T01:55:28.760Z,0.00
2022-09-09T01:56:28.604Z,0.00
2022-09-09T01:57:28.582Z,0.00
2022-09-09T01:58:28.553Z,0.00
2022-09-09T01:59:28.552Z,0.00
2022-09-09T02:00:28.532Z,0.00
2022-09-09T02:01:28.591Z,0.00
2022-09-09T02:02:28.595Z,0.00
2022-09-09T02:03:28.525Z,0.00
2022-09-09T02:04:28.492Z,0.00
2022-09-09T02:05:28.825Z,0.00
2022-09-09T02:06:28.511Z,0.00
2022-09-09T02:07:29.381Z,0.00
2022-09-09T02:08:29.327Z,0.00
2022-09-09T02:09:29.192Z,0.00
2022-09-09T02:10:28.464Z,0.00
2022-09-09T02:11:28.444Z,0.00
2022-09-09T02:12:28.402Z,0.00
2022-09-09T02:13:28.465Z,0.00
2022-09-09T02:14:28.377Z,0.00
2022-09-09T02:15:28.414Z,0.00
2022-09-09T02:16:28.431Z,0.00
2022-09-09T02:17:28.350Z,0.00
2022-09-09T02:18:28.326Z,0.00
2022-09-09T02:19:28.400Z,0.00
2022-09-09T02:20:30.540Z,0.00
2022-09-09T02:21:29.332Z,0.00
2022-09-09T02:22:28.282Z,0.00
2022-09-09T02:23:28.352Z,0.00
2022-09-09T02:24:28.421Z,0.00
2022-09-09T02:25:28.261Z,0.00
2022-09-09T02:26:28.231Z,0.00
2022-09-09T02:27:28.241Z,0.00
2022-09-09T02:28:29.061Z,0.00
2022-09-09T02:29:28.245Z,0.00
2022-09-09T02:30:28.305Z,0.00
2022-09-09T02:31:28.192Z,0.00
2022-09-09T02:32:28.162Z,0.00
2022-09-09T02:33:28.172Z,0.00
2022-09-09T02:34:28.150Z,0.00
2022-09-09T02:35:28.220Z,0.00
2022-09-09T02:36:28.133Z,0.00
2022-09-09T02:37:28.121Z,0.00
2022-09-09T02:38:28.165Z,0.00
2022-09-09T02:39:28.102Z,0.00
2022-09-09T02:40:28.087Z,0.00
2022-09-09T02:41:28.074Z,0.00
2022-09-09T02:42:28.054Z,0.00
2022-09-09T02:43:28.053Z,0.00
2022-09-09T02:44:28.032Z,0.00
2022-09-09T02:45:28.043Z,0.00
2022-09-09T02:46:28.030Z,0.00
2022-09-09T02:47:28.007Z,0.00
2022-09-09T02:48:28.852Z,0.00
2022-09-09T02:49:28.291Z,0.00
2022-09-09T02:50:27.973Z,0.00
2022-09-09T02:51:27.961Z,0.00
2022-09-09T02:52:27.982Z,0.00
2022-09-09T02:53:27.932Z,0.00
2022-09-09T02:54:27.933Z,0.00
2022-09-09T02:55:27.905Z,0.00
2022-09-09T02:56:27.915Z,0.00
2022-09-09T02:57:28.141Z,0.00
2022-09-09T02:58:27.893Z,0.00
2022-09-09T02:59:27.861Z,0.00
2022-09-09T03:00:27.861Z,0.00
2022-09-09T03:01:27.920Z,0.00
2022-09-09T03:02:27.905Z,0.00
2022-09-09T03:03:27.822Z,0.00
2022-09-09T03:04:27.821Z,0.00
2022-09-09T03:05:27.791Z,0.00
2022-09-09T03:06:27.795Z,0.00
2022-09-09T03:07:27.780Z,0.00
2022-09-09T03:08:27.911Z,0.00
2022-09-09T03:09:27.770Z,0.00
2022-09-09T03:10:27.923Z,0.00
2022-09-09T03:11:27.740Z,0.00
2022-09-09T03:12:27.736Z,0.00
2022-09-09T03:13:27.711Z,0.00
2022-09-09T03:14:27.708Z,0.00
2022-09-09T03:15:27.701Z,0.00
2022-09-09T03:16:27.723Z,0.00
2022-09-09T03:17:27.653Z,0.00
2022-09-09T03:18:27.660Z,0.00
2022-09-09T03:19:27.641Z,0.00
2022-09-09T03:20:27.641Z,0.00
2022-09-09T03:21:27.624Z,0.00
2022-09-09T03:22:27.661Z,0.00
2022-09-09T03:23:27.591Z,0.00
2022-09-09T03:24:27.591Z,0.00
2022-09-09T03:25:27.574Z,0.00
2022-09-09T03:26:27.573Z,0.00
2022-09-09T03:27:27.551Z,0.00
2022-09-09T03:28:27.550Z,0.00
2022-09-09T03:29:27.539Z,0.00
2022-09-09T03:30:28.324Z,0.00
2022-09-09T03:31:27.563Z,0.00
2022-09-09T03:32:27.504Z,0.00
2022-09-09T03:33:27.492Z,0.00
2022-09-09T03:34:27.500Z,0.00
2022-09-09T03:35:27.462Z,0.00
2022-09-09T03:36:27.454Z,0.00
2022-09-09T03:37:27.430Z,0.00
2022-09-09T03:38:27.432Z,0.00
2022-09-09T03:39:27.430Z,0.00
2022-09-09T03:40:27.426Z,0.00
2022-09-09T03:41:27.382Z,0.00
2022-09-09T03:42:27.387Z,0.00
2022-09-09T03:43:27.361Z,0.00
2022-09-09T03:44:27.370Z,0.00
2022-09-09T03:45:27.393Z,0.00
2022-09-09T03:46:27.370Z,0.00
2022-09-09T03:47:27.324Z,0.00
2022-09-09T03:48:27.330Z,0.00
2022-09-09T03:49:27.291Z,0.00
2022-09-09T03:50:27.291Z,0.00
2022-09-09T03:51:27.273Z,0.00
2022-09-09T03:52:27.278Z,0.00
2022-09-09T03:53:27.248Z,0.00
2022-09-09T03:54:27.239Z,0.00
2022-09-09T03:55:27.216Z,0.00
2022-09-09T03:56:27.231Z,0.00
2022-09-09T03:57:27.201Z,0.00
2022-09-09T03:58:27.200Z,0.00
2022-09-09T03:59:27.172Z,0.00
2022-09-09T04:00:27.172Z,0.00
2022-09-09T04:01:27.203Z,0.00
2022-09-09T04:02:27.247Z,0.00
2022-09-09T04:03:28.218Z,0.00
2022-09-09T04:04:27.132Z,0.00
2022-09-09T04:05:27.100Z,0.00
2022-09-09T04:06:27.121Z,0.00
2022-09-09T04:07:27.082Z,0.00
2022-09-09T04:08:27.081Z,0.00
2022-09-09T04:09:27.062Z,0.00
2022-09-09T04:10:27.095Z,0.00
2022-09-09T04:11:27.082Z,0.00
2022-09-09T04:12:27.080Z,0.00
2022-09-09T04:13:27.029Z,0.00
2022-09-09T04:14:27.020Z,0.00
2022-09-09T04:15:26.998Z,0.00
2022-09-09T04:16:27.086Z,0.00
2022-09-09T04:17:26.972Z,0.00
2022-09-09T04:18:26.993Z,0.00
2022-09-09T04:19:26.941Z,0.00
2022-09-09T04:20:26.951Z,0.00
2022-09-09T04:21:26.975Z,0.00
2022-09-09T04:22:26.935Z,0.00
2022-09-09T04:23:26.902Z,0.00
2022-09-09T04:24:26.901Z,0.00
2022-09-09T04:25:26.872Z,0.00
2022-09-09T04:26:26.891Z,0.00
2022-09-09T04:27:26.863Z,0.00
2022-09-09T04:28:26.860Z,0.00
2022-09-09T04:29:26.840Z,0.00
2022-09-09T04:30:26.830Z,0.00
2022-09-09T04:31:27.653Z,0.00
2022-09-09T04:32:27.532Z,4.00
2022-09-09T04:33:26.797Z,0.00
2022-09-09T04:34:26.792Z,0.00
2022-09-09T04:35:26.761Z,0.00
2022-09-09T04:36:26.771Z,4.00
2022-09-09T04:37:26.770Z,4.00
2022-09-09T04:38:26.747Z,4.00
2022-09-09T04:39:26.729Z,4.00
2022-09-09T04:40:26.727Z,8.00
2022-09-09T04:41:26.700Z,8.00
2022-09-09T04:42:26.700Z,8.00
2022-09-09T04:43:26.680Z,12.00
2022-09-09T04:44:26.688Z,12.00
2022-09-09T04:45:26.669Z,12.00
2022-09-09T04:46:26.662Z,12.00
2022-09-09T04:47:26.638Z,16.00
2022-09-09T04:48:26.659Z,16.00
2022-09-09T04:49:26.616Z,20.00
2022-09-09T04:50:26.611Z,24.00
2022-09-09T04:51:27.060Z,28.00
2022-09-09T04:52:26.670Z,32.00
2022-09-09T04:53:26.569Z,32.00
2022-09-09T04:54:27.089Z,40.00
2022-09-09T04:55:26.545Z,40.00
2022-09-09T04:56:26.540Z,36.00
2022-09-09T04:57:26.520Z,40.00
2022-09-09T04:58:27.250Z,44.00
2022-09-09T04:59:26.519Z,40.00
2022-09-09T05:00:26.501Z,44.00
2022-09-09T05:01:26.501Z,56.00
2022-09-09T05:02:29.699Z,68.00
2022-09-09T05:03:27.455Z,84.00
2022-09-09T05:04:26.459Z,84.00
2022-09-09T05:05:26.430Z,72.00
2022-09-09T05:06:26.439Z,64.00
2022-09-09T05:07:26.403Z,72.00
2022-09-09T05:08:26.408Z,72.00
2022-09-09T05:09:26.379Z,84.00
2022-09-09T05:10:26.410Z,84.00
2022-09-09T05:11:27.109Z,80.00
2022-09-09T05:12:26.398Z,96.00
2022-09-09T05:13:26.352Z,132.00
2022-09-09T05:14:26.356Z,176.00
2022-09-09T05:15:26.310Z,184.00
2022-09-09T05:16:26.383Z,192.00
2022-09-09T05:17:26.300Z,204.00
2022-09-09T05:18:26.297Z,200.00
2022-09-09T05:19:26.271Z,204.00
2022-09-09T05:20:26.288Z,216.00
2022-09-09T05:21:26.305Z,204.00
2022-09-09T05:22:26.282Z,188.00
2022-09-09T05:23:26.222Z,168.00
2022-09-09T05:24:26.238Z,152.00
2022-09-09T05:25:26.203Z,176.00
2022-09-09T05:26:26.199Z,208.00
2022-09-09T05:27:26.212Z,216.00
2022-09-09T05:28:26.190Z,348.00
2022-09-09T05:29:26.179Z,276.00
2022-09-09T05:30:26.159Z,384.00
2022-09-09T05:31:27.218Z,396.00
2022-09-09T05:32:26.160Z,504.00
2022-09-09T05:33:26.133Z,580.00
2022-09-09T05:34:26.110Z,808.00
2022-09-09T05:35:26.090Z,896.00
2022-09-09T05:36:26.105Z,1064.00
2022-09-09T05:37:26.089Z,1400.00
2022-09-09T05:38:28.780Z,1524.00
2022-09-09T05:39:26.052Z,1536.00
2022-09-09T05:40:26.040Z,1536.00
2022-09-09T05:41:26.024Z,1616.00
2022-09-09T05:42:26.036Z,1740.00
2022-09-09T05:43:26.094Z,1800.00
2022-09-09T05:44:26.030Z,1748.00
2022-09-09T05:45:26.042Z,1508.00
2022-09-09T05:46:26.191Z,1332.00
2022-09-09T05:47:25.959Z,1368.00
2022-09-09T05:48:25.962Z,1384.00
2022-09-09T05:49:25.949Z,1460.00
2022-09-09T05:50:29.753Z,1604.00
2022-09-09T05:51:26.920Z,1620.00
2022-09-09T05:52:25.919Z,1712.00
2022-09-09T05:53:25.960Z,1708.00
2022-09-09T05:54:26.012Z,1696.00
2022-09-09T05:55:25.887Z,1704.00
2022-09-09T05:56:25.878Z,1828.00
2022-09-09T05:57:25.859Z,1984.00
2022-09-09T05:58:25.862Z,2044.00
2022-09-09T05:59:25.937Z,2084.00
2022-09-09T06:00:25.926Z,2088.00
2022-09-09T06:01:25.813Z,2116.00
2022-09-09T06:02:25.958Z,2160.00
2022-09-09T06:03:25.794Z,2064.00
2022-09-09T06:04:25.802Z,2056.00
2022-09-09T06:05:25.788Z,2048.00
2022-09-09T06:06:25.789Z,1980.00
2022-09-09T06:07:25.749Z,1836.00
2022-09-09T06:08:25.739Z,1744.00
2022-09-09T06:09:25.723Z,1632.00
2022-09-09T06:10:25.718Z,1608.00
2022-09-09T06:11:25.777Z,1640.00
2022-09-09T06:12:25.699Z,1656.00
2022-09-09T06:13:25.679Z,1632.00
2022-09-09T06:14:25.671Z,1652.00
2022-09-09T06:15:25.650Z,1676.00
2022-09-09T06:16:25.719Z,1724.00
2022-09-09T06:17:25.621Z,1796.00
2022-09-09T06:18:25.629Z,1852.00
2022-09-09T06:19:25.609Z,1928.00
2022-09-09T06:20:25.600Z,2008.00
2022-09-09T06:21:25.580Z,2120.00
2022-09-09T06:22:25.625Z,2192.00
2022-09-09T06:23:25.561Z,2220.00
2022-09-09T06:24:25.592Z,2264.00
2022-09-09T06:25:25.757Z,2404.00
2022-09-09T06:26:25.530Z,2616.00
2022-09-09T06:27:25.531Z,2740.00
2022-09-09T06:28:25.539Z,2756.00
2022-09-09T06:29:25.510Z,2712.00
2022-09-09T06:30:25.581Z,2488.00
2022-09-09T06:31:29.718Z,2076.00
2022-09-09T06:32:25.462Z,1652.00
2022-09-09T06:33:25.439Z,1376.00
2022-09-09T06:34:25.443Z,1644.00
2022-09-09T06:35:25.528Z,2084.00
2022-09-09T06:36:25.439Z,1728.00
2022-09-09T06:37:25.400Z,1496.00
2022-09-09T06:38:25.391Z,1148.00
2022-09-09T06:39:25.373Z,832.00
2022-09-09T06:40:25.418Z,884.00
2022-09-09T06:41:25.360Z,1156.00
2022-09-09T06:42:25.371Z,1472.00
2022-09-09T06:43:25.668Z,1720.00
2022-09-09T06:44:25.330Z,1964.00
2022-09-09T06:45:25.310Z,2060.00
2022-09-09T06:46:25.335Z,2084.00
2022-09-09T06:47:25.300Z,2068.00
2022-09-09T06:48:25.322Z,2064.00
2022-09-09T06:49:25.346Z,1968.00
2022-09-09T06:50:25.277Z,1952.00
2022-09-09T06:51:25.240Z,2024.00
2022-09-09T06:52:25.260Z,2248.00
2022-09-09T06:53:25.230Z,2664.00
2022-09-09T06:54:25.220Z,2804.00
2022-09-09T06:55:25.205Z,2884.00
2022-09-09T06:56:25.202Z,2996.00
2022-09-09T06:57:36.871Z,3016.00
2022-09-09T06:58:26.208Z,3256.00
2022-09-09T06:59:25.161Z,3096.00
2022-09-09T07:00:25.190Z,3124.00
2022-09-09T07:01:25.144Z,3248.00
2022-09-09T07:02:25.155Z,3004.00
2022-09-09T07:03:25.151Z,2632.00
2022-09-09T07:04:25.090Z,2428.00
2022-09-09T07:05:25.100Z,2148.00
2022-09-09T07:06:25.086Z,2244.00
2022-09-09T07:07:25.923Z,2484.00
2022-09-09T07:08:25.833Z,2488.00
2022-09-09T07:09:26.242Z,2788.00
2022-09-09T07:10:25.105Z,3064.00
2022-09-09T07:11:25.087Z,3424.00
2022-09-09T07:12:25.038Z,3488.00
2022-09-09T07:13:25.011Z,3488.00
2022-09-09T07:14:24.991Z,3312.00
2022-09-09T07:15:24.996Z,3236.00
2022-09-09T07:16:24.993Z,3384.00
2022-09-09T07:17:24.971Z,3492.00
2022-09-09T07:18:24.952Z,3644.00
2022-09-09T07:19:24.950Z,3556.00
2022-09-09T07:20:24.930Z,3272.00
2022-09-09T07:21:24.940Z,2840.00
2022-09-09T07:22:24.929Z,3088.00
2022-09-09T07:23:24.891Z,3116.00
2022-09-09T07:24:24.874Z,2912.00
2022-09-09T07:25:24.913Z,2784.00
2022-09-09T07:26:24.879Z,2712.00
2022-09-09T07:27:24.851Z,2600.00
2022-09-09T07:28:24.852Z,2632.00
2022-09-09T07:29:25.602Z,2292.00
2022-09-09T07:30:27.827Z,2852.00
2022-09-09T07:31:24.892Z,3328.00
2022-09-09T07:32:24.792Z,3552.00
2022-09-09T07:33:24.883Z,4092.00
2022-09-09T07:34:24.994Z,4704.00
2022-09-09T07:35:24.771Z,4780.00
2022-09-09T07:36:24.771Z,3604.00
2022-09-09T07:37:24.751Z,3928.00
2022-09-09T07:38:24.832Z,3844.00
2022-09-09T07:39:24.736Z,3840.00
2022-09-09T07:40:24.702Z,3840.00
2022-09-09T07:41:24.702Z,3292.00
2022-09-09T07:42:24.702Z,3336.00
2022-09-09T07:43:24.683Z,2556.00
2022-09-09T07:44:24.852Z,2344.00
2022-09-09T07:45:24.676Z,2384.00
2022-09-09T07:46:24.694Z,2420.00
2022-09-09T07:47:24.642Z,2428.00
2022-09-09T07:48:24.613Z,2668.00
2022-09-09T07:49:30.907Z,2248.00
2022-09-09T07:50:26.408Z,2368.00
2022-09-09T07:51:24.641Z,2384.00
2022-09-09T07:52:24.564Z,2252.00
2022-09-09T07:53:24.573Z,2080.00
2022-09-09T07:54:24.593Z,1920.00
2022-09-09T07:55:24.545Z,1996.00
2022-09-09T07:56:24.534Z,2004.00
2022-09-09T07:57:24.521Z,2360.00
2022-09-09T07:58:24.502Z,3576.00
2022-09-09T07:59:24.513Z,4368.00
2022-09-09T08:00:24.493Z,4144.00
2022-09-09T08:01:24.506Z,4636.00
2022-09-09T08:02:24.457Z,5288.00
2022-09-09T08:03:24.501Z,5512.00
2022-09-09T08:04:24.452Z,4320.00
2022-09-09T08:05:24.444Z,2864.00
2022-09-09T08:06:24.413Z,1820.00
2022-09-09T08:07:24.404Z,1700.00
2022-09-09T08:08:24.380Z,1760.00
2022-09-09T08:09:24.396Z,1704.00
2022-09-09T08:10:24.514Z,1460.00
2022-09-09T08:11:25.158Z,1480.00
2022-09-09T08:12:24.345Z,1524.00
2022-09-09T08:13:24.345Z,2016.00
2022-09-09T08:14:24.321Z,2264.00
2022-09-09T08:15:24.333Z,2360.00
2022-09-09T08:16:24.340Z,2392.00
2022-09-09T08:17:24.335Z,3212.00
2022-09-09T08:18:24.273Z,2988.00
2022-09-09T08:19:24.274Z,2308.00
2022-09-09T08:20:24.275Z,2292.00
2022-09-09T08:21:24.264Z,2576.00
2022-09-09T08:22:24.225Z,2908.00
2022-09-09T08:23:24.225Z,3120.00
2022-09-09T08:24:24.218Z,3300.00
2022-09-09T08:25:24.207Z,4068.00
2022-09-09T08:26:24.236Z,3836.00
2022-09-09T08:27:24.191Z,3772.00
2022-09-09T08:28:24.174Z,4300.00
2022-09-09T08:29:24.156Z,3884.00
2022-09-09T08:30:24.145Z,4188.00
2022-09-09T08:32:24.115Z,3900.00
2022-09-09T08:33:24.119Z,3980.00
2022-09-09T08:34:24.084Z,3592.00
2022-09-09T08:35:24.099Z,2720.00
2022-09-09T08:36:24.097Z,4152.00
2022-09-09T08:37:24.106Z,4496.00
2022-09-09T08:38:24.065Z,3856.00
2022-09-09T08:39:24.054Z,2952.00
2022-09-09T08:40:24.021Z,2232.00
2022-09-09T08:41:24.029Z,1936.00
2022-09-09T08:42:24.027Z,2496.00
2022-09-09T08:43:24.032Z,2532.00
2022-09-09T08:44:23.976Z,2876.00
2022-09-09T08:45:23.983Z,2296.00
2022-09-09T08:46:24.029Z,1980.00
2022-09-09T08:47:23.955Z,1976.00
2022-09-09T08:48:23.945Z,1748.00
2022-09-09T08:49:23.953Z,1688.00
2022-09-09T08:50:23.914Z,2528.00
2022-09-09T08:51:23.913Z,3928.00
2022-09-09T08:52:23.898Z,4640.00
2022-09-09T08:53:23.900Z,5768.00
2022-09-09T08:54:48.517Z,6308.00
2022-09-09T08:55:24.863Z,5868.00
2022-09-09T08:56:23.845Z,5812.00
2022-09-09T08:57:23.844Z,5136.00
2022-09-09T08:58:23.821Z,4908.00
2022-09-09T08:59:23.827Z,5852.00
2022-09-09T09:00:23.796Z,6752.00
2022-09-09T09:01:23.854Z,6740.00
2022-09-09T09:02:23.775Z,7584.00
2022-09-09T09:03:23.785Z,7520.00
2022-09-09T09:04:23.779Z,7528.00
2022-09-09T09:05:23.766Z,5404.00
2022-09-09T09:06:23.728Z,4276.00
2022-09-09T09:07:23.736Z,3912.00
2022-09-09T09:08:23.707Z,4448.00
2022-09-09T09:09:23.729Z,5144.00
2022-09-09T09:10:41.202Z,5536.00
2022-09-09T09:11:25.536Z,5476.00
2022-09-09T09:12:23.667Z,5036.00
2022-09-09T09:13:23.671Z,4536.00
2022-09-09T09:14:23.689Z,3632.00
2022-09-09T09:15:23.657Z,3220.00
2022-09-09T09:16:23.628Z,3948.00
2022-09-09T09:17:23.639Z,4176.00
2022-09-09T09:18:23.604Z,4132.00
2022-09-09T09:19:23.601Z,3960.00
2022-09-09T09:20:23.586Z,3792.00
2022-09-09T09:21:23.590Z,3176.00
2022-09-09T09:22:23.602Z,3232.00
2022-09-09T09:23:23.554Z,4012.00
2022-09-09T09:24:23.529Z,4872.00
2022-09-09T09:25:23.537Z,5532.00
2022-09-09T09:26:23.513Z,4724.00
2022-09-09T09:27:23.528Z,4500.00
2022-09-09T09:28:23.488Z,4408.00
2022-09-09T09:29:23.487Z,3620.00
2022-09-09T09:30:29.019Z,3492.00
2022-09-09T09:31:24.503Z,2836.00
2022-09-09T09:32:23.450Z,2820.00
2022-09-09T09:33:23.449Z,3032.00
2022-09-09T09:34:23.428Z,3192.00
2022-09-09T09:35:23.419Z,3728.00
2022-09-09T09:36:23.407Z,4612.00
2022-09-09T09:37:23.412Z,5512.00
2022-09-09T09:40:24.357Z,4564.00
2022-09-09T09:41:23.358Z,5060.00
2022-09-09T09:42:24.049Z,4656.00
2022-09-09T09:43:23.338Z,3904.00
2022-09-09T09:44:23.310Z,3144.00
2022-09-09T09:45:23.316Z,2560.00
2022-09-09T09:46:23.320Z,2516.00
2022-09-09T09:47:23.287Z,2376.00
2022-09-09T09:48:23.269Z,2060.00
2022-09-09T09:49:24.084Z,1748.00
2022-09-09T09:50:23.252Z,2248.00
2022-09-09T09:51:23.251Z,3352.00
2022-09-09T09:52:23.479Z,4528.00
2022-09-09T09:53:23.230Z,4868.00
2022-09-09T09:54:23.210Z,4352.00
2022-09-09T09:55:23.209Z,4032.00
2022-09-09T09:56:23.192Z,3796.00
2022-09-09T09:57:23.208Z,3700.00
2022-09-09T09:58:23.162Z,4244.00
2022-09-09T09:59:23.719Z,4332.00
2022-09-09T10:00:24.141Z,5024.00
2022-09-09T10:01:23.175Z,4196.00
2022-09-09T10:02:23.111Z,4104.00
2022-09-09T10:03:23.190Z,4440.00
2022-09-09T10:04:23.135Z,5096.00
2022-09-09T10:05:26.776Z,4776.00
2022-09-09T10:06:23.070Z,4684.00
2022-09-09T10:07:23.082Z,6008.00
2022-09-09T10:08:23.052Z,5492.00
2022-09-09T10:09:23.055Z,5044.00
2022-09-09T10:10:23.038Z,4260.00
2022-09-09T10:11:23.028Z,3288.00
2022-09-09T10:12:23.779Z,2748.00
2022-09-09T10:13:23.020Z,2272.00
2022-09-09T10:14:22.981Z,1812.00
2022-09-09T10:15:23.010Z,1896.00
2022-09-09T10:16:22.989Z,1924.00
2022-09-09T10:17:22.976Z,2056.00
2022-09-09T10:18:22.944Z,2252.00
2022-09-09T10:19:22.943Z,2376.00
2022-09-09T10:20:22.919Z,3328.00
2022-09-09T10:21:22.925Z,3072.00
2022-09-09T10:22:22.906Z,2976.00
2022-09-09T10:23:22.913Z,3536.00
2022-09-09T10:24:22.899Z,4584.00
2022-09-09T10:25:23.071Z,4392.00
2022-09-09T10:26:23.743Z,3256.00
2022-09-09T10:27:22.871Z,3080.00
2022-09-09T10:28:22.821Z,3344.00
2022-09-09T10:29:22.836Z,3292.00
2022-09-09T10:30:22.804Z,3220.00
2022-09-09T10:31:22.886Z,3044.00
2022-09-09T10:32:22.792Z,4012.00
2022-09-09T10:33:22.813Z,4768.00
2022-09-09T10:34:23.715Z,4272.00
2022-09-09T10:35:22.809Z,4160.00
2022-09-09T10:36:22.768Z,4936.00
2022-09-09T10:37:22.749Z,5952.00
2022-09-09T10:38:22.726Z,6408.00
2022-09-09T10:39:22.720Z,6824.00
2022-09-09T10:40:22.729Z,6572.00
2022-09-09T10:41:22.699Z,7108.00
2022-09-09T10:42:22.673Z,7488.00
2022-09-09T10:43:22.682Z,6824.00
2022-09-09T10:44:22.655Z,6940.00
2022-09-09T10:45:22.663Z,6728.00
2022-09-09T10:46:22.697Z,6032.00
2022-09-09T10:47:27.948Z,6044.00
2022-09-09T10:48:23.653Z,6136.00
2022-09-09T10:49:23.320Z,6436.00
2022-09-09T10:50:22.589Z,6316.00
2022-09-09T10:51:22.637Z,5800.00
2022-09-09T10:52:22.578Z,5608.00
2022-09-09T10:53:22.574Z,6172.00
2022-09-09T10:54:22.543Z,6292.00
2022-09-09T10:55:25.600Z,6060.00
2022-09-09T10:56:23.517Z,5236.00
2022-09-09T10:57:22.522Z,5796.00
2022-09-09T10:58:22.504Z,6632.00
2022-09-09T10:59:22.537Z,7284.00
2022-09-09T11:00:22.485Z,6324.00
2022-09-09T11:01:22.510Z,4840.00
2022-09-09T11:02:22.472Z,4148.00
2022-09-09T11:03:22.467Z,3728.00
2022-09-09T11:04:22.474Z,5400.00
2022-09-09T11:05:22.436Z,5992.00
2022-09-09T11:06:22.454Z,6004.00
2022-09-09T11:07:22.749Z,6000.00
2022-09-09T11:09:22.386Z,5568.00
2022-09-09T11:10:22.365Z,6116.00
2022-09-09T11:11:22.369Z,5248.00
2022-09-09T11:12:22.354Z,5320.00
2022-09-09T11:13:23.298Z,4300.00
2022-09-09T11:14:22.463Z,3460.00
2022-09-09T11:15:23.106Z,3420.00
2022-09-09T11:16:22.402Z,3908.00
2022-09-09T11:17:22.293Z,3996.00
2022-09-09T11:18:22.287Z,4028.00
2022-09-09T11:19:22.268Z,4828.00
2022-09-09T11:20:22.269Z,5640.00
2022-09-09T11:21:22.268Z,6216.00
2022-09-09T11:22:22.245Z,5292.00
2022-09-09T11:23:22.956Z,4976.00
2022-09-09T11:24:22.235Z,5188.00
2022-09-09T11:25:22.665Z,5656.00
2022-09-09T11:26:22.215Z,4496.00
2022-09-09T11:27:22.177Z,3624.00
2022-09-09T11:28:22.232Z,3508.00
2022-09-09T11:29:22.160Z,5212.00
2022-09-09T11:31:23.290Z,3644.00
2022-09-09T11:32:22.136Z,6092.00
2022-09-09T11:33:22.132Z,6400.00
2022-09-09T11:34:22.129Z,4896.00
2022-09-09T11:35:22.205Z,5268.00
2022-09-09T11:36:22.087Z,5356.00
2022-09-09T11:37:22.067Z,6004.00
2022-09-09T11:38:22.096Z,7052.00
2022-09-09T11:39:22.047Z,6128.00
2022-09-09T11:40:22.047Z,6256.00
2022-09-09T11:41:22.145Z,6132.00
2022-09-09T11:42:22.023Z,6144.00
2022-09-09T11:43:22.007Z,5332.00
2022-09-09T11:44:22.009Z,3896.00
2022-09-09T11:45:22.284Z,4316.00
2022-09-09T11:46:22.036Z,4620.00
2022-09-09T11:47:21.956Z,5224.00
2022-09-09T11:48:21.962Z,5636.00
2022-09-09T11:49:21.966Z,7320.00
2022-09-09T11:50:21.947Z,8044.00
2022-09-09T11:51:21.910Z,5880.00
2022-09-09T11:52:21.919Z,5080.00
2022-09-09T11:53:21.906Z,4656.00
2022-09-09T11:54:21.953Z,4976.00
2022-09-09T11:55:22.598Z,4892.00
2022-09-09T11:56:22.751Z,4060.00
2022-09-09T11:57:21.869Z,4128.00
2022-09-09T11:58:22.849Z,4160.00
2022-09-09T11:59:22.834Z,4224.00
2022-09-09T12:00:21.855Z,3560.00
2022-09-09T12:01:22.180Z,3012.00
2022-09-09T12:02:21.950Z,2740.00
2022-09-09T12:03:21.840Z,3152.00
2022-09-09T12:04:22.448Z,3644.00
2022-09-09T12:05:21.852Z,5988.00
2022-09-09T12:06:21.772Z,5100.00
2022-09-09T12:07:22.473Z,3816.00
2022-09-09T12:08:21.750Z,4328.00
2022-09-09T12:09:21.740Z,3860.00
2022-09-09T12:10:21.733Z,3940.00
2022-09-09T12:11:21.700Z,4112.00
2022-09-09T12:12:21.716Z,4472.00
2022-09-09T12:13:21.750Z,4660.00
2022-09-09T12:14:21.782Z,4680.00
2022-09-09T12:15:22.483Z,4428.00
2022-09-09T12:16:22.392Z,5196.00
2022-09-09T12:17:21.795Z,4632.00
2022-09-09T12:18:21.652Z,4580.00
2022-09-09T12:19:24.773Z,3624.00
2022-09-09T12:20:21.622Z,2884.00
2022-09-09T12:21:21.597Z,2056.00
2022-09-09T12:22:21.607Z,1684.00
2022-09-09T12:23:21.571Z,1416.00
2022-09-09T12:24:22.371Z,1232.00
2022-09-09T12:25:23.347Z,1744.00
2022-09-09T12:26:21.542Z,2940.00
2022-09-09T12:27:21.552Z,4444.00
2022-09-09T12:28:21.627Z,5776.00
2022-09-09T12:29:22.403Z,6864.00
2022-09-09T12:30:21.514Z,6040.00
2022-09-09T12:31:21.482Z,4560.00
2022-09-09T12:32:21.491Z,3032.00
2022-09-09T12:33:21.993Z,3244.00
2022-09-09T12:34:21.587Z,3168.00
2022-09-09T12:35:22.334Z,3184.00
2022-09-09T12:36:21.503Z,3404.00
2022-09-09T12:37:22.156Z,4852.00
2022-09-09T12:38:21.516Z,4812.00
2022-09-09T12:39:21.396Z,4396.00